Aviation Digital Data Service (ADDS)

Output produced by METARs form (0904 UTC 13 August 2022)
found at http://www.aviationweather.gov/metar/data/
 
METAR text: KLVK 130853Z AUTO 30004KT 10SM CLR 15/12 A3000 RMK AO2 SLP155 T01500122 58004 $
Conditions at: KLVK (LIVERMORE , CA, US) observed 0853 UTC 13 August 2022
Temperature: 15.0°C (59°F)
Dewpoint: 12.2°C (54°F) [RH = 83%]
Pressure (altimeter): 30.00 inches Hg (1016.0 mb)
[Sea-level pressure: 1015.5 mb]
Winds: from the WNW (300 degrees) at 5 MPH (4 knots; 2.1 m/s)
Visibility: 10 or more miles (16+ km)
Ceiling: at least 12,000 feet AGL
Clouds: sky clear below 12,000 feet AGL
Weather:
SOME DATA ABOVE MAY BE INACCURATE!!!
"$" is an indication the sensor requires maintenance

METAR text: KLVK 130753Z AUTO 31005KT 10SM CLR 15/12 A3001 RMK AO2 SLP159 T01500122 402890128 $
Conditions at: KLVK (LIVERMORE , CA, US) observed 0753 UTC 13 August 2022
Temperature: 15.0°C (59°F)
Dewpoint: 12.2°C (54°F) [RH = 83%]
Pressure (altimeter): 30.01 inches Hg (1016.3 mb)
[Sea-level pressure: 1015.9 mb]
Winds: from the NW (310 degrees) at 6 MPH (5 knots; 2.6 m/s)
Visibility: 10 or more miles (16+ km)
Ceiling: at least 12,000 feet AGL
Clouds: sky clear below 12,000 feet AGL
Weather:
SOME DATA ABOVE MAY BE INACCURATE!!!
"$" is an indication the sensor requires maintenance

METAR text: KLVK 130653Z AUTO 00000KT 10SM CLR 16/12 A3001 RMK AO2 SLP158 T01560122 $
Conditions at: KLVK (LIVERMORE , CA, US) observed 0653 UTC 13 August 2022
Temperature: 15.6°C (60°F)
Dewpoint: 12.2°C (54°F) [RH = 80%]
Pressure (altimeter): 30.01 inches Hg (1016.3 mb)
[Sea-level pressure: 1015.8 mb]
Winds: calm
Visibility: 10 or more miles (16+ km)
Ceiling: at least 12,000 feet AGL
Clouds: sky clear below 12,000 feet AGL
Weather:
SOME DATA ABOVE MAY BE INACCURATE!!!
"$" is an indication the sensor requires maintenance

METAR text: KLVK 130553Z AUTO 23007KT 10SM CLR 16/12 A3001 RMK AO2 SLP159 T01610122 10278 20150 51009 $
Conditions at: KLVK (LIVERMORE , CA, US) observed 0553 UTC 13 August 2022
Temperature: 16.1°C (61°F)
Dewpoint: 12.2°C (54°F) [RH = 78%]
Pressure (altimeter): 30.01 inches Hg (1016.3 mb)
[Sea-level pressure: 1015.9 mb]
Winds: from the SW (230 degrees) at 8 MPH (7 knots; 3.6 m/s)
Visibility: 10 or more miles (16+ km)
Ceiling: at least 12,000 feet AGL
Clouds: sky clear below 12,000 feet AGL
Weather:
SOME DATA ABOVE MAY BE INACCURATE!!!
"$" is an indication the sensor requires maintenance

METAR text: KLVK 130453Z AUTO 29005KT 10SM CLR 16/12 A3001 RMK AO2 SLP159 T01610122 $
Conditions at: KLVK (LIVERMORE , CA, US) observed 0453 UTC 13 August 2022
Temperature: 16.1°C (61°F)
Dewpoint: 12.2°C (54°F) [RH = 78%]
Pressure (altimeter): 30.01 inches Hg (1016.3 mb)
[Sea-level pressure: 1015.9 mb]
Winds: from the WNW (290 degrees) at 6 MPH (5 knots; 2.6 m/s)
Visibility: 10 or more miles (16+ km)
Ceiling: at least 12,000 feet AGL
Clouds: sky clear below 12,000 feet AGL
Weather:
SOME DATA ABOVE MAY BE INACCURATE!!!
"$" is an indication the sensor requires maintenance

METAR text: KLVK 130353Z AUTO 29004KT 10SM CLR 18/12 A3000 RMK AO2 SLP157 T01780122 $
Conditions at: KLVK (LIVERMORE , CA, US) observed 0353 UTC 13 August 2022
Temperature: 17.8°C (64°F)
Dewpoint: 12.2°C (54°F) [RH = 70%]
Pressure (altimeter): 30.00 inches Hg (1016.0 mb)
[Sea-level pressure: 1015.7 mb]
Winds: from the WNW (290 degrees) at 5 MPH (4 knots; 2.1 m/s)
Visibility: 10 or more miles (16+ km)
Ceiling: at least 12,000 feet AGL
Clouds: sky clear below 12,000 feet AGL
Weather:
SOME DATA ABOVE MAY BE INACCURATE!!!
"$" is an indication the sensor requires maintenance

METAR text: KLVK 130253Z 23008KT 10SM CLR 21/12 A2999 RMK AO2 SLP151 T02060122 53002 $
Conditions at: KLVK (LIVERMORE , CA, US) observed 0253 UTC 13 August 2022
Temperature: 20.6°C (69°F)
Dewpoint: 12.2°C (54°F) [RH = 59%]
Pressure (altimeter): 29.99 inches Hg (1015.7 mb)
[Sea-level pressure: 1015.1 mb]
Winds: from the SW (230 degrees) at 9 MPH (8 knots; 4.1 m/s)
Visibility: 10 or more miles (16+ km)
Ceiling: at least 12,000 feet AGL
Clouds: sky clear below 12,000 feet AGL
Weather:
SOME DATA ABOVE MAY BE INACCURATE!!!
"$" is an indication the sensor requires maintenance

METAR text: KLVK 130153Z 29011KT 10SM CLR 23/12 A2998 RMK AO2 SLP148 T02330117 $
Conditions at: KLVK (LIVERMORE , CA, US) observed 0153 UTC 13 August 2022
Temperature: 23.3°C (74°F)
Dewpoint: 11.7°C (53°F) [RH = 48%]
Pressure (altimeter): 29.98 inches Hg (1015.3 mb)
[Sea-level pressure: 1014.8 mb]
Winds: from the WNW (290 degrees) at 13 MPH (11 knots; 5.7 m/s)
Visibility: 10 or more miles (16+ km)
Ceiling: at least 12,000 feet AGL
Clouds: sky clear below 12,000 feet AGL
Weather:
SOME DATA ABOVE MAY BE INACCURATE!!!
"$" is an indication the sensor requires maintenance

Forecast for: KLVK (LIVERMORE , CA, US)
Text: KLVK 130539Z 1306/1406 VRB04KT P6SM SKC
Forecast period: 0600 to 2100 UTC 13 August 2022
Forecast type: FROM: standard forecast or significant change
Winds: variable direction winds at 5 MPH (4 knots; 2.1 m/s)
Visibility: 6 or more miles (10+ km)
Clouds: clear skies
Weather: no significant weather forecast for this period
Text: FM132100 27010KT P6SM SKC
Forecast period: 2100 UTC 13 August 2022 to 0300 UTC 14 August 2022
Forecast type: FROM: standard forecast or significant change
Winds: from the W (270 degrees) at 12 MPH (10 knots; 5.1 m/s)
Visibility: 6 or more miles (10+ km)
Clouds: clear skies
Weather: no significant weather forecast for this period
Text: FM140300 VRB04KT P6SM SKC
Forecast period: 0300 to 0600 UTC 14 August 2022
Forecast type: FROM: standard forecast or significant change
Winds: variable direction winds at 5 MPH (4 knots; 2.1 m/s)
Visibility: 6 or more miles (10+ km)
Clouds: clear skies
Weather: no significant weather forecast for this period